Lockney, West Virginia
Current Conditions -  °F | °C
As of 8:55 PM on Monday 24 Nov 2014 (Local Time) from KW22 Reporting Station
Clear Clear  
Wind Chill: 55°   Ceiling: Unl
Heat Index: 55°   Visibility: 10mi
Dew Point: 36°   Wind: 10mph
Humidity: 47%   Direction: 250°WSW
Pressure: 29.8"   Gusts: 20mph
Location:  38.86°N, 80.97°W
Report Text: KW22 250155Z AUTO 25009G17KT 10SM CLR 13/02 A2980 RMK AO2
Loading
Personal Weather Stations






























Interactive Weather Map New forecast layout! Learn more

10-Day Weather Forecast

Advertisements
Track Severe Weather on mobile